sensor_id;sensor_type;location;lat;lon;timestamp;P1;durP1;ratioP1;P2;durP2;ratioP2
39078;SDS011;24829;49.208;12.080;2024-02-23T00:01:36;0.90;;;0.32;;
39078;SDS011;24829;49.208;12.080;2024-02-23T00:04:01;0.57;;;0.30;;
39078;SDS011;24829;49.208;12.080;2024-02-23T00:06:28;0.15;;;0.15;;
39078;SDS011;24829;49.208;12.080;2024-02-23T00:08:54;0.80;;;0.30;;
39078;SDS011;24829;49.208;12.080;2024-02-23T00:11:22;0.40;;;0.20;;
39078;SDS011;24829;49.208;12.080;2024-02-23T00:13:48;0.88;;;0.30;;
39078;SDS011;24829;49.208;12.080;2024-02-23T00:16:14;0.52;;;0.30;;
39078;SDS011;24829;49.208;12.080;2024-02-23T00:18:40;1.13;;;0.38;;
39078;SDS011;24829;49.208;12.080;2024-02-23T00:21:06;0.30;;;0.20;;
39078;SDS011;24829;49.208;12.080;2024-02-23T00:23:31;0.52;;;0.20;;
39078;SDS011;24829;49.208;12.080;2024-02-23T00:25:57;0.85;;;0.30;;
39078;SDS011;24829;49.208;12.080;2024-02-23T00:28:22;0.32;;;0.15;;
39078;SDS011;24829;49.208;12.080;2024-02-23T00:30:48;0.38;;;0.20;;
39078;SDS011;24829;49.208;12.080;2024-02-23T00:33:14;0.30;;;0.20;;
39078;SDS011;24829;49.208;12.080;2024-02-23T00:35:39;1.08;;;0.20;;
39078;SDS011;24829;49.208;12.080;2024-02-23T00:38:05;0.63;;;0.20;;
39078;SDS011;24829;49.208;12.080;2024-02-23T00:40:32;0.20;;;0.20;;
39078;SDS011;24829;49.208;12.080;2024-02-23T00:42:58;0.65;;;0.35;;
39078;SDS011;24829;49.208;12.080;2024-02-23T00:45:25;0.40;;;0.20;;
39078;SDS011;24829;49.208;12.080;2024-02-23T00:47:50;0.25;;;0.17;;
39078;SDS011;24829;49.208;12.080;2024-02-23T00:50:16;0.32;;;0.20;;
39078;SDS011;24829;49.208;12.080;2024-02-23T00:52:42;0.10;;;0.10;;
39078;SDS011;24829;49.208;12.080;2024-02-23T00:55:07;0.63;;;0.30;;
39078;SDS011;24829;49.208;12.080;2024-02-23T00:57:38;2.42;;;0.30;;
39078;SDS011;24829;49.208;12.080;2024-02-23T01:00:04;0.73;;;0.30;;
39078;SDS011;24829;49.208;12.080;2024-02-23T01:02:30;2.17;;;0.30;;
39078;SDS011;24829;49.208;12.080;2024-02-23T01:04:57;0.57;;;0.20;;
39078;SDS011;24829;49.208;12.080;2024-02-23T01:07:23;0.30;;;0.15;;
39078;SDS011;24829;49.208;12.080;2024-02-23T01:09:49;0.20;;;0.10;;
39078;SDS011;24829;49.208;12.080;2024-02-23T01:12:15;0.25;;;0.10;;
39078;SDS011;24829;49.208;12.080;2024-02-23T01:14:41;0.45;;;0.28;;
39078;SDS011;24829;49.208;12.080;2024-02-23T01:17:07;1.35;;;0.10;;
39078;SDS011;24829;49.208;12.080;2024-02-23T01:19:33;0.20;;;0.10;;
39078;SDS011;24829;49.208;12.080;2024-02-23T01:21:58;0.43;;;0.10;;
39078;SDS011;24829;49.208;12.080;2024-02-23T01:24:25;0.00;;;0.00;;
39078;SDS011;24829;49.208;12.080;2024-02-23T01:26:53;0.10;;;0.00;;
39078;SDS011;24829;49.208;12.080;2024-02-23T01:29:20;0.98;;;0.10;;
39078;SDS011;24829;49.208;12.080;2024-02-23T01:31:47;0.65;;;0.00;;
39078;SDS011;24829;49.208;12.080;2024-02-23T01:34:13;0.38;;;0.08;;
39078;SDS011;24829;49.208;12.080;2024-02-23T01:36:38;0.43;;;0.10;;
39078;SDS011;24829;49.208;12.080;2024-02-23T01:39:04;0.20;;;0.10;;
39078;SDS011;24829;49.208;12.080;2024-02-23T01:41:30;0.65;;;0.08;;
39078;SDS011;24829;49.208;12.080;2024-02-23T01:43:55;0.35;;;0.00;;
39078;SDS011;24829;49.208;12.080;2024-02-23T01:46:21;0.10;;;0.00;;
39078;SDS011;24829;49.208;12.080;2024-02-23T01:48:47;3.35;;;0.38;;
39078;SDS011;24829;49.208;12.080;2024-02-23T01:51:12;0.30;;;0.00;;
39078;SDS011;24829;49.208;12.080;2024-02-23T01:53:38;0.00;;;0.00;;
39078;SDS011;24829;49.208;12.080;2024-02-23T01:56:04;0.52;;;0.13;;
39078;SDS011;24829;49.208;12.080;2024-02-23T01:58:31;0.20;;;0.00;;
39078;SDS011;24829;49.208;12.080;2024-02-23T02:01:00;1.13;;;0.10;;
39078;SDS011;24829;49.208;12.080;2024-02-23T02:03:26;0.20;;;0.00;;
39078;SDS011;24829;49.208;12.080;2024-02-23T02:05:52;0.10;;;0.10;;
39078;SDS011;24829;49.208;12.080;2024-02-23T02:08:18;0.60;;;0.10;;
39078;SDS011;24829;49.208;12.080;2024-02-23T02:10:45;0.00;;;0.00;;
39078;SDS011;24829;49.208;12.080;2024-02-23T02:13:12;1.23;;;0.10;;
39078;SDS011;24829;49.208;12.080;2024-02-23T02:15:37;3.97;;;0.10;;
39078;SDS011;24829;49.208;12.080;2024-02-23T02:18:04;0.50;;;0.00;;
39078;SDS011;24829;49.208;12.080;2024-02-23T02:20:32;1.45;;;0.10;;
39078;SDS011;24829;49.208;12.080;2024-02-23T02:22:58;1.48;;;0.10;;
39078;SDS011;24829;49.208;12.080;2024-02-23T02:25:24;0.08;;;0.00;;
39078;SDS011;24829;49.208;12.080;2024-02-23T02:27:49;0.25;;;0.00;;
39078;SDS011;24829;49.208;12.080;2024-02-23T02:30:15;0.68;;;0.10;;
39078;SDS011;24829;49.208;12.080;2024-02-23T02:32:41;1.08;;;0.10;;
39078;SDS011;24829;49.208;12.080;2024-02-23T02:35:07;1.15;;;0.10;;
39078;SDS011;24829;49.208;12.080;2024-02-23T02:37:32;0.40;;;0.15;;
39078;SDS011;24829;49.208;12.080;2024-02-23T02:39:58;0.10;;;0.10;;
39078;SDS011;24829;49.208;12.080;2024-02-23T02:42:24;0.00;;;0.00;;
39078;SDS011;24829;49.208;12.080;2024-02-23T02:44:49;1.60;;;0.10;;
39078;SDS011;24829;49.208;12.080;2024-02-23T02:47:15;0.10;;;0.00;;
39078;SDS011;24829;49.208;12.080;2024-02-23T02:49:41;0.13;;;0.00;;
39078;SDS011;24829;49.208;12.080;2024-02-23T02:52:06;1.10;;;0.10;;
39078;SDS011;24829;49.208;12.080;2024-02-23T02:54:33;1.50;;;0.10;;
39078;SDS011;24829;49.208;12.080;2024-02-23T02:56:59;0.43;;;0.10;;
39078;SDS011;24829;49.208;12.080;2024-02-23T02:59:24;1.48;;;0.13;;
39078;SDS011;24829;49.208;12.080;2024-02-23T03:01:50;0.95;;;0.10;;
39078;SDS011;24829;49.208;12.080;2024-02-23T03:04:16;1.02;;;0.20;;
39078;SDS011;24829;49.208;12.080;2024-02-23T03:06:41;3.42;;;0.22;;
39078;SDS011;24829;49.208;12.080;2024-02-23T03:09:07;2.97;;;0.40;;
39078;SDS011;24829;49.208;12.080;2024-02-23T03:11:33;0.20;;;0.10;;
39078;SDS011;24829;49.208;12.080;2024-02-23T03:13:58;0.35;;;0.20;;
39078;SDS011;24829;49.208;12.080;2024-02-23T03:16:24;1.50;;;0.20;;
39078;SDS011;24829;49.208;12.080;2024-02-23T03:18:54;2.63;;;0.20;;
39078;SDS011;24829;49.208;12.080;2024-02-23T03:21:20;1.08;;;0.20;;
39078;SDS011;24829;49.208;12.080;2024-02-23T03:23:45;2.70;;;0.20;;
39078;SDS011;24829;49.208;12.080;2024-02-23T03:26:11;0.52;;;0.20;;
39078;SDS011;24829;49.208;12.080;2024-02-23T03:28:36;0.75;;;0.20;;
39078;SDS011;24829;49.208;12.080;2024-02-23T03:31:02;0.75;;;0.20;;
39078;SDS011;24829;49.208;12.080;2024-02-23T03:33:28;4.00;;;0.45;;
39078;SDS011;24829;49.208;12.080;2024-02-23T03:35:53;1.95;;;0.22;;
39078;SDS011;24829;49.208;12.080;2024-02-23T03:38:20;2.65;;;0.20;;
39078;SDS011;24829;49.208;12.080;2024-02-23T03:40:46;2.25;;;0.20;;
39078;SDS011;24829;49.208;12.080;2024-02-23T03:43:11;1.65;;;0.20;;
39078;SDS011;24829;49.208;12.080;2024-02-23T03:45:37;1.17;;;0.30;;
39078;SDS011;24829;49.208;12.080;2024-02-23T03:48:03;2.40;;;0.20;;
39078;SDS011;24829;49.208;12.080;2024-02-23T03:50:29;3.35;;;0.20;;
39078;SDS011;24829;49.208;12.080;2024-02-23T03:52:55;2.15;;;0.20;;
39078;SDS011;24829;49.208;12.080;2024-02-23T03:55:21;1.02;;;0.30;;
39078;SDS011;24829;49.208;12.080;2024-02-23T03:57:47;1.05;;;0.20;;
39078;SDS011;24829;49.208;12.080;2024-02-23T04:00:13;0.40;;;0.20;;
39078;SDS011;24829;49.208;12.080;2024-02-23T04:02:39;0.17;;;0.10;;
39078;SDS011;24829;49.208;12.080;2024-02-23T04:05:05;2.10;;;0.40;;
39078;SDS011;24829;49.208;12.080;2024-02-23T04:07:31;2.92;;;0.13;;
39078;SDS011;24829;49.208;12.080;2024-02-23T04:09:57;4.00;;;0.30;;
39078;SDS011;24829;49.208;12.080;2024-02-23T04:12:23;1.35;;;0.25;;
39078;SDS011;24829;49.208;12.080;2024-02-23T04:14:49;4.13;;;0.63;;
39078;SDS011;24829;49.208;12.080;2024-02-23T04:17:14;1.35;;;0.20;;
39078;SDS011;24829;49.208;12.080;2024-02-23T04:19:40;1.17;;;0.20;;
39078;SDS011;24829;49.208;12.080;2024-02-23T04:22:07;2.20;;;0.20;;
39078;SDS011;24829;49.208;12.080;2024-02-23T04:24:35;0.60;;;0.30;;
39078;SDS011;24829;49.208;12.080;2024-02-23T04:27:03;1.95;;;0.30;;
39078;SDS011;24829;49.208;12.080;2024-02-23T04:29:29;1.00;;;0.20;;
39078;SDS011;24829;49.208;12.080;2024-02-23T04:31:55;2.63;;;0.30;;
39078;SDS011;24829;49.208;12.080;2024-02-23T04:34:20;1.88;;;0.20;;
39078;SDS011;24829;49.208;12.080;2024-02-23T04:36:46;0.68;;;0.20;;
39078;SDS011;24829;49.208;12.080;2024-02-23T04:39:11;2.05;;;0.20;;
39078;SDS011;24829;49.208;12.080;2024-02-23T04:41:37;2.17;;;0.30;;
39078;SDS011;24829;49.208;12.080;2024-02-23T04:44:03;3.53;;;0.30;;
39078;SDS011;24829;49.208;12.080;2024-02-23T04:46:28;0.55;;;0.20;;
39078;SDS011;24829;49.208;12.080;2024-02-23T04:48:55;2.92;;;0.52;;
39078;SDS011;24829;49.208;12.080;2024-02-23T04:51:21;2.38;;;0.40;;
39078;SDS011;24829;49.208;12.080;2024-02-23T04:53:48;1.33;;;0.25;;
39078;SDS011;24829;49.208;12.080;2024-02-23T04:56:14;0.77;;;0.40;;
39078;SDS011;24829;49.208;12.080;2024-02-23T04:58:40;1.23;;;0.30;;
39078;SDS011;24829;49.208;12.080;2024-02-23T05:01:08;5.25;;;0.30;;
39078;SDS011;24829;49.208;12.080;2024-02-23T05:03:34;5.53;;;0.70;;
39078;SDS011;24829;49.208;12.080;2024-02-23T05:06:01;2.45;;;0.30;;
39078;SDS011;24829;49.208;12.080;2024-02-23T05:08:27;2.67;;;0.50;;
39078;SDS011;24829;49.208;12.080;2024-02-23T05:10:52;2.63;;;0.50;;
39078;SDS011;24829;49.208;12.080;2024-02-23T05:13:18;2.65;;;0.30;;
39078;SDS011;24829;49.208;12.080;2024-02-23T05:15:44;3.35;;;0.40;;
39078;SDS011;24829;49.208;12.080;2024-02-23T05:18:10;1.95;;;0.35;;
39078;SDS011;24829;49.208;12.080;2024-02-23T05:20:35;2.90;;;0.55;;
39078;SDS011;24829;49.208;12.080;2024-02-23T05:23:01;0.63;;;0.32;;
39078;SDS011;24829;49.208;12.080;2024-02-23T05:25:26;1.67;;;0.30;;
39078;SDS011;24829;49.208;12.080;2024-02-23T05:27:52;3.05;;;0.70;;
39078;SDS011;24829;49.208;12.080;2024-02-23T05:30:18;3.10;;;0.40;;
39078;SDS011;24829;49.208;12.080;2024-02-23T05:32:44;4.63;;;0.65;;
39078;SDS011;24829;49.208;12.080;2024-02-23T05:35:09;2.10;;;0.57;;
39078;SDS011;24829;49.208;12.080;2024-02-23T05:37:35;5.55;;;1.20;;
39078;SDS011;24829;49.208;12.080;2024-02-23T05:40:03;4.32;;;0.40;;
39078;SDS011;24829;49.208;12.080;2024-02-23T05:42:35;3.20;;;0.90;;
39078;SDS011;24829;49.208;12.080;2024-02-23T05:45:04;2.72;;;0.50;;
39078;SDS011;24829;49.208;12.080;2024-02-23T05:47:34;6.50;;;0.70;;
39078;SDS011;24829;49.208;12.080;2024-02-23T05:50:00;2.90;;;0.38;;
39078;SDS011;24829;49.208;12.080;2024-02-23T05:52:26;2.05;;;0.32;;
39078;SDS011;24829;49.208;12.080;2024-02-23T05:54:51;2.88;;;0.47;;
39078;SDS011;24829;49.208;12.080;2024-02-23T05:57:18;4.88;;;1.05;;
39078;SDS011;24829;49.208;12.080;2024-02-23T05:59:44;4.65;;;0.40;;
39078;SDS011;24829;49.208;12.080;2024-02-23T06:02:10;3.10;;;0.40;;
39078;SDS011;24829;49.208;12.080;2024-02-23T06:04:35;2.92;;;0.30;;
39078;SDS011;24829;49.208;12.080;2024-02-23T06:07:01;5.85;;;0.38;;
39078;SDS011;24829;49.208;12.080;2024-02-23T06:09:27;3.20;;;0.68;;
39078;SDS011;24829;49.208;12.080;2024-02-23T06:11:52;2.83;;;0.32;;
39078;SDS011;24829;49.208;12.080;2024-02-23T06:14:18;4.22;;;0.50;;
39078;SDS011;24829;49.208;12.080;2024-02-23T06:16:43;3.40;;;0.43;;
39078;SDS011;24829;49.208;12.080;2024-02-23T06:19:09;3.42;;;0.40;;
39078;SDS011;24829;49.208;12.080;2024-02-23T06:21:35;5.20;;;0.50;;
39078;SDS011;24829;49.208;12.080;2024-02-23T06:24:01;2.25;;;0.50;;
39078;SDS011;24829;49.208;12.080;2024-02-23T06:26:27;4.57;;;0.60;;
39078;SDS011;24829;49.208;12.080;2024-02-23T06:28:53;3.97;;;0.80;;
39078;SDS011;24829;49.208;12.080;2024-02-23T06:31:18;2.10;;;0.70;;
39078;SDS011;24829;49.208;12.080;2024-02-23T06:33:44;2.05;;;0.70;;
39078;SDS011;24829;49.208;12.080;2024-02-23T06:36:13;1.13;;;0.50;;
39078;SDS011;24829;49.208;12.080;2024-02-23T06:38:39;2.75;;;0.63;;
39078;SDS011;24829;49.208;12.080;2024-02-23T06:41:05;3.78;;;0.80;;
39078;SDS011;24829;49.208;12.080;2024-02-23T06:43:32;1.45;;;0.52;;
39078;SDS011;24829;49.208;12.080;2024-02-23T06:45:57;3.08;;;0.70;;
39078;SDS011;24829;49.208;12.080;2024-02-23T06:48:23;2.33;;;0.40;;
39078;SDS011;24829;49.208;12.080;2024-02-23T06:50:49;1.35;;;0.77;;
39078;SDS011;24829;49.208;12.080;2024-02-23T06:53:15;1.85;;;0.52;;
39078;SDS011;24829;49.208;12.080;2024-02-23T06:55:40;3.00;;;0.30;;
39078;SDS011;24829;49.208;12.080;2024-02-23T06:58:06;3.38;;;0.40;;
39078;SDS011;24829;49.208;12.080;2024-02-23T07:00:32;4.90;;;0.50;;
39078;SDS011;24829;49.208;12.080;2024-02-23T07:02:58;3.88;;;0.75;;
39078;SDS011;24829;49.208;12.080;2024-02-23T07:05:24;5.72;;;0.47;;
39078;SDS011;24829;49.208;12.080;2024-02-23T07:07:50;0.98;;;0.30;;
39078;SDS011;24829;49.208;12.080;2024-02-23T07:10:16;1.13;;;0.40;;
39078;SDS011;24829;49.208;12.080;2024-02-23T07:12:43;1.95;;;0.55;;
39078;SDS011;24829;49.208;12.080;2024-02-23T07:15:09;3.45;;;0.50;;
39078;SDS011;24829;49.208;12.080;2024-02-23T07:17:35;5.45;;;0.45;;
39078;SDS011;24829;49.208;12.080;2024-02-23T07:20:00;2.53;;;0.40;;
39078;SDS011;24829;49.208;12.080;2024-02-23T07:22:30;1.52;;;0.50;;
39078;SDS011;24829;49.208;12.080;2024-02-23T07:24:56;2.70;;;0.32;;
39078;SDS011;24829;49.208;12.080;2024-02-23T07:27:22;2.72;;;0.35;;
39078;SDS011;24829;49.208;12.080;2024-02-23T07:29:47;2.83;;;0.50;;
39078;SDS011;24829;49.208;12.080;2024-02-23T07:32:13;1.80;;;0.40;;
39078;SDS011;24829;49.208;12.080;2024-02-23T07:34:39;3.20;;;0.60;;
39078;SDS011;24829;49.208;12.080;2024-02-23T07:37:04;2.60;;;0.50;;
39078;SDS011;24829;49.208;12.080;2024-02-23T07:39:30;5.97;;;0.70;;
39078;SDS011;24829;49.208;12.080;2024-02-23T07:41:56;1.13;;;0.40;;
39078;SDS011;24829;49.208;12.080;2024-02-23T07:44:22;2.25;;;0.50;;
39078;SDS011;24829;49.208;12.080;2024-02-23T07:46:47;1.55;;;0.50;;
39078;SDS011;24829;49.208;12.080;2024-02-23T07:49:13;4.10;;;0.38;;
39078;SDS011;24829;49.208;12.080;2024-02-23T07:51:39;3.95;;;0.40;;
39078;SDS011;24829;49.208;12.080;2024-02-23T07:54:04;0.60;;;0.30;;
39078;SDS011;24829;49.208;12.080;2024-02-23T07:56:30;4.68;;;0.60;;
39078;SDS011;24829;49.208;12.080;2024-02-23T07:58:56;1.35;;;0.52;;
39078;SDS011;24829;49.208;12.080;2024-02-23T08:01:22;4.70;;;0.85;;
39078;SDS011;24829;49.208;12.080;2024-02-23T08:03:48;1.98;;;0.40;;
39078;SDS011;24829;49.208;12.080;2024-02-23T08:06:14;6.38;;;0.73;;
39078;SDS011;24829;49.208;12.080;2024-02-23T08:08:39;4.38;;;0.70;;
39078;SDS011;24829;49.208;12.080;2024-02-23T08:11:05;3.17;;;0.60;;
39078;SDS011;24829;49.208;12.080;2024-02-23T08:13:31;5.85;;;1.52;;
39078;SDS011;24829;49.208;12.080;2024-02-23T08:15:57;3.55;;;1.20;;
39078;SDS011;24829;49.208;12.080;2024-02-23T08:18:23;3.25;;;0.52;;
39078;SDS011;24829;49.208;12.080;2024-02-23T08:20:49;8.10;;;1.30;;
39078;SDS011;24829;49.208;12.080;2024-02-23T08:23:14;7.70;;;0.80;;
39078;SDS011;24829;49.208;12.080;2024-02-23T08:25:40;2.15;;;0.50;;
39078;SDS011;24829;49.208;12.080;2024-02-23T08:28:06;4.05;;;0.68;;
39078;SDS011;24829;49.208;12.080;2024-02-23T08:30:32;1.05;;;0.80;;
39078;SDS011;24829;49.208;12.080;2024-02-23T08:32:58;4.13;;;0.57;;
39078;SDS011;24829;49.208;12.080;2024-02-23T08:35:24;4.40;;;0.70;;
39078;SDS011;24829;49.208;12.080;2024-02-23T08:37:50;5.30;;;0.50;;
39078;SDS011;24829;49.208;12.080;2024-02-23T08:40:16;1.98;;;0.70;;
39078;SDS011;24829;49.208;12.080;2024-02-23T08:42:41;1.02;;;0.52;;
39078;SDS011;24829;49.208;12.080;2024-02-23T08:45:07;3.85;;;0.80;;
39078;SDS011;24829;49.208;12.080;2024-02-23T08:47:34;3.85;;;0.73;;
39078;SDS011;24829;49.208;12.080;2024-02-23T08:50:00;6.20;;;0.80;;
39078;SDS011;24829;49.208;12.080;2024-02-23T08:52:26;6.40;;;0.70;;
39078;SDS011;24829;49.208;12.080;2024-02-23T08:54:52;4.13;;;0.55;;
39078;SDS011;24829;49.208;12.080;2024-02-23T08:57:17;0.70;;;0.40;;
39078;SDS011;24829;49.208;12.080;2024-02-23T08:59:48;0.52;;;0.38;;
39078;SDS011;24829;49.208;12.080;2024-02-23T09:02:14;1.05;;;0.80;;
39078;SDS011;24829;49.208;12.080;2024-02-23T09:04:40;0.80;;;0.40;;
39078;SDS011;24829;49.208;12.080;2024-02-23T09:07:06;1.85;;;0.52;;
39078;SDS011;24829;49.208;12.080;2024-02-23T09:09:31;0.88;;;0.35;;
39078;SDS011;24829;49.208;12.080;2024-02-23T09:11:57;3.10;;;0.47;;
39078;SDS011;24829;49.208;12.080;2024-02-23T09:14:23;5.35;;;0.82;;
39078;SDS011;24829;49.208;12.080;2024-02-23T09:16:50;0.85;;;0.20;;
39078;SDS011;24829;49.208;12.080;2024-02-23T09:19:16;3.33;;;0.80;;
39078;SDS011;24829;49.208;12.080;2024-02-23T09:21:43;1.67;;;0.45;;
39078;SDS011;24829;49.208;12.080;2024-02-23T09:24:09;0.95;;;0.30;;
39078;SDS011;24829;49.208;12.080;2024-02-23T09:26:34;3.20;;;0.70;;
39078;SDS011;24829;49.208;12.080;2024-02-23T09:29:00;0.75;;;0.35;;
39078;SDS011;24829;49.208;12.080;2024-02-23T09:31:25;0.95;;;0.30;;
39078;SDS011;24829;49.208;12.080;2024-02-23T09:33:53;0.85;;;0.43;;
39078;SDS011;24829;49.208;12.080;2024-02-23T09:36:20;0.88;;;0.40;;
39078;SDS011;24829;49.208;12.080;2024-02-23T09:38:46;1.38;;;0.30;;
39078;SDS011;24829;49.208;12.080;2024-02-23T09:41:19;3.90;;;0.75;;
39078;SDS011;24829;49.208;12.080;2024-02-23T09:43:47;1.85;;;0.40;;
39078;SDS011;24829;49.208;12.080;2024-02-23T09:46:14;3.65;;;0.40;;
39078;SDS011;24829;49.208;12.080;2024-02-23T09:48:44;2.15;;;0.25;;
39078;SDS011;24829;49.208;12.080;2024-02-23T09:51:11;2.13;;;0.43;;
39078;SDS011;24829;49.208;12.080;2024-02-23T09:53:37;2.08;;;0.40;;
39078;SDS011;24829;49.208;12.080;2024-02-23T09:56:04;2.63;;;0.80;;
39078;SDS011;24829;49.208;12.080;2024-02-23T09:58:31;1.20;;;0.30;;
39078;SDS011;24829;49.208;12.080;2024-02-23T10:00:58;0.88;;;0.25;;
39078;SDS011;24829;49.208;12.080;2024-02-23T10:03:25;1.65;;;0.30;;
39078;SDS011;24829;49.208;12.080;2024-02-23T10:05:53;3.55;;;0.40;;
39078;SDS011;24829;49.208;12.080;2024-02-23T10:08:19;2.35;;;0.77;;
39078;SDS011;24829;49.208;12.080;2024-02-23T10:10:45;1.10;;;0.38;;
39078;SDS011;24829;49.208;12.080;2024-02-23T10:13:12;5.30;;;0.77;;
39078;SDS011;24829;49.208;12.080;2024-02-23T10:15:38;1.17;;;0.50;;
39078;SDS011;24829;49.208;12.080;2024-02-23T10:18:04;4.20;;;0.73;;
39078;SDS011;24829;49.208;12.080;2024-02-23T10:20:29;5.30;;;0.57;;
39078;SDS011;24829;49.208;12.080;2024-02-23T10:22:56;3.70;;;0.70;;
39078;SDS011;24829;49.208;12.080;2024-02-23T10:25:22;1.92;;;0.30;;
39078;SDS011;24829;49.208;12.080;2024-02-23T10:27:47;4.93;;;1.30;;
39078;SDS011;24829;49.208;12.080;2024-02-23T10:30:13;3.20;;;0.90;;
39078;SDS011;24829;49.208;12.080;2024-02-23T10:32:42;6.22;;;0.60;;
39078;SDS011;24829;49.208;12.080;2024-02-23T10:35:10;5.47;;;0.40;;
39078;SDS011;24829;49.208;12.080;2024-02-23T10:37:40;2.22;;;0.40;;
39078;SDS011;24829;49.208;12.080;2024-02-23T10:40:13;2.17;;;0.32;;
39078;SDS011;24829;49.208;12.080;2024-02-23T10:42:42;2.65;;;0.93;;
39078;SDS011;24829;49.208;12.080;2024-02-23T10:45:16;2.17;;;0.40;;
39078;SDS011;24829;49.208;12.080;2024-02-23T10:47:50;0.73;;;0.40;;
39078;SDS011;24829;49.208;12.080;2024-02-23T10:50:17;3.35;;;0.38;;
39078;SDS011;24829;49.208;12.080;2024-02-23T10:52:44;1.73;;;0.30;;
39078;SDS011;24829;49.208;12.080;2024-02-23T10:55:11;2.28;;;0.55;;
39078;SDS011;24829;49.208;12.080;2024-02-23T10:57:39;4.38;;;0.93;;
39078;SDS011;24829;49.208;12.080;2024-02-23T11:00:05;1.25;;;0.40;;
39078;SDS011;24829;49.208;12.080;2024-02-23T11:02:35;3.30;;;0.93;;
39078;SDS011;24829;49.208;12.080;2024-02-23T11:05:14;4.30;;;0.57;;
39078;SDS011;24829;49.208;12.080;2024-02-23T11:07:41;2.55;;;0.50;;
39078;SDS011;24829;49.208;12.080;2024-02-23T11:10:07;5.85;;;0.50;;
39078;SDS011;24829;49.208;12.080;2024-02-23T11:12:34;3.90;;;0.63;;
39078;SDS011;24829;49.208;12.080;2024-02-23T11:15:00;2.00;;;0.40;;
39078;SDS011;24829;49.208;12.080;2024-02-23T11:17:27;2.85;;;0.70;;
39078;SDS011;24829;49.208;12.080;2024-02-23T11:19:55;1.90;;;0.75;;
39078;SDS011;24829;49.208;12.080;2024-02-23T11:22:25;1.88;;;0.50;;
39078;SDS011;24829;49.208;12.080;2024-02-23T11:25:03;2.53;;;0.60;;
39078;SDS011;24829;49.208;12.080;2024-02-23T11:27:40;4.05;;;0.70;;
39078;SDS011;24829;49.208;12.080;2024-02-23T11:30:08;2.95;;;0.80;;
39078;SDS011;24829;49.208;12.080;2024-02-23T11:35:03;1.00;;;0.60;;
39078;SDS011;24829;49.208;12.080;2024-02-23T11:37:30;1.27;;;0.50;;
39078;SDS011;24829;49.208;12.080;2024-02-23T11:39:56;1.08;;;0.47;;
39078;SDS011;24829;49.208;12.080;2024-02-23T11:42:25;1.85;;;0.60;;
39078;SDS011;24829;49.208;12.080;2024-02-23T11:44:52;1.25;;;0.30;;
39078;SDS011;24829;49.208;12.080;2024-02-23T11:47:21;3.55;;;0.43;;
39078;SDS011;24829;49.208;12.080;2024-02-23T11:49:46;2.47;;;0.43;;
39078;SDS011;24829;49.208;12.080;2024-02-23T11:52:12;2.15;;;0.57;;
39078;SDS011;24829;49.208;12.080;2024-02-23T11:54:38;3.85;;;0.82;;
39078;SDS011;24829;49.208;12.080;2024-02-23T11:57:04;2.88;;;0.60;;
39078;SDS011;24829;49.208;12.080;2024-02-23T11:59:29;1.42;;;0.50;;
39078;SDS011;24829;49.208;12.080;2024-02-23T12:01:55;3.33;;;1.00;;
39078;SDS011;24829;49.208;12.080;2024-02-23T12:04:21;4.78;;;1.20;;
39078;SDS011;24829;49.208;12.080;2024-02-23T12:06:46;4.65;;;0.65;;
39078;SDS011;24829;49.208;12.080;2024-02-23T12:09:12;3.08;;;0.38;;
39078;SDS011;24829;49.208;12.080;2024-02-23T12:11:39;2.15;;;0.55;;
39078;SDS011;24829;49.208;12.080;2024-02-23T12:14:05;2.50;;;0.73;;
39078;SDS011;24829;49.208;12.080;2024-02-23T12:16:34;2.90;;;0.70;;
39078;SDS011;24829;49.208;12.080;2024-02-23T12:19:03;2.50;;;0.43;;
39078;SDS011;24829;49.208;12.080;2024-02-23T12:21:28;2.08;;;0.50;;
39078;SDS011;24829;49.208;12.080;2024-02-23T12:23:54;1.42;;;0.60;;
39078;SDS011;24829;49.208;12.080;2024-02-23T12:26:20;0.60;;;0.30;;
39078;SDS011;24829;49.208;12.080;2024-02-23T12:28:46;1.77;;;0.60;;
39078;SDS011;24829;49.208;12.080;2024-02-23T12:31:12;1.90;;;0.40;;
39078;SDS011;24829;49.208;12.080;2024-02-23T12:33:38;1.63;;;0.70;;
39078;SDS011;24829;49.208;12.080;2024-02-23T12:36:05;5.35;;;0.80;;
39078;SDS011;24829;49.208;12.080;2024-02-23T12:38:31;1.45;;;0.47;;
39078;SDS011;24829;49.208;12.080;2024-02-23T12:40:57;1.15;;;0.50;;
39078;SDS011;24829;49.208;12.080;2024-02-23T12:43:24;5.63;;;0.75;;
39078;SDS011;24829;49.208;12.080;2024-02-23T12:45:53;2.20;;;0.50;;
39078;SDS011;24829;49.208;12.080;2024-02-23T12:50:48;2.10;;;0.63;;
39078;SDS011;24829;49.208;12.080;2024-02-23T12:53:30;2.92;;;0.60;;
39078;SDS011;24829;49.208;12.080;2024-02-23T12:58:29;2.65;;;0.60;;
39078;SDS011;24829;49.208;12.080;2024-02-23T13:00:56;3.30;;;0.80;;
39078;SDS011;24829;49.208;12.080;2024-02-23T13:03:23;2.38;;;0.70;;
39078;SDS011;24829;49.208;12.080;2024-02-23T13:05:50;2.33;;;0.60;;
39078;SDS011;24829;49.208;12.080;2024-02-23T13:08:16;1.23;;;0.50;;
39078;SDS011;24829;49.208;12.080;2024-02-23T13:10:42;4.40;;;0.52;;
39078;SDS011;24829;49.208;12.080;2024-02-23T13:13:08;2.38;;;0.60;;
39078;SDS011;24829;49.208;12.080;2024-02-23T13:15:34;1.42;;;0.65;;
39078;SDS011;24829;49.208;12.080;2024-02-23T13:18:01;1.63;;;0.60;;
39078;SDS011;24829;49.208;12.080;2024-02-23T13:20:27;1.95;;;0.52;;
39078;SDS011;24829;49.208;12.080;2024-02-23T13:22:53;3.25;;;0.75;;
39078;SDS011;24829;49.208;12.080;2024-02-23T13:25:18;2.25;;;0.70;;
39078;SDS011;24829;49.208;12.080;2024-02-23T13:27:44;3.92;;;1.10;;
39078;SDS011;24829;49.208;12.080;2024-02-23T13:30:10;3.55;;;1.00;;
39078;SDS011;24829;49.208;12.080;2024-02-23T13:32:37;6.28;;;1.10;;
39078;SDS011;24829;49.208;12.080;2024-02-23T13:35:02;2.88;;;1.48;;
39078;SDS011;24829;49.208;12.080;2024-02-23T13:37:31;5.43;;;1.60;;
39078;SDS011;24829;49.208;12.080;2024-02-23T13:39:57;6.05;;;1.05;;
39078;SDS011;24829;49.208;12.080;2024-02-23T13:42:22;3.88;;;1.00;;
39078;SDS011;24829;49.208;12.080;2024-02-23T13:44:48;3.92;;;1.60;;
39078;SDS011;24829;49.208;12.080;2024-02-23T13:47:14;4.75;;;1.73;;
39078;SDS011;24829;49.208;12.080;2024-02-23T13:49:40;4.75;;;2.50;;
39078;SDS011;24829;49.208;12.080;2024-02-23T13:52:05;10.55;;;2.17;;
39078;SDS011;24829;49.208;12.080;2024-02-23T13:54:31;3.60;;;2.20;;
39078;SDS011;24829;49.208;12.080;2024-02-23T13:56:56;3.33;;;2.03;;
39078;SDS011;24829;49.208;12.080;2024-02-23T13:59:22;3.38;;;1.20;;
39078;SDS011;24829;49.208;12.080;2024-02-23T14:01:48;1.88;;;1.10;;
39078;SDS011;24829;49.208;12.080;2024-02-23T14:04:13;13.07;;;9.18;;
39078;SDS011;24829;49.208;12.080;2024-02-23T14:06:39;5.95;;;5.10;;
39078;SDS011;24829;49.208;12.080;2024-02-23T14:09:05;3.22;;;2.15;;
39078;SDS011;24829;49.208;12.080;2024-02-23T14:11:31;2.65;;;0.90;;
39078;SDS011;24829;49.208;12.080;2024-02-23T14:13:57;3.95;;;1.20;;
39078;SDS011;24829;49.208;12.080;2024-02-23T14:16:23;1.48;;;0.95;;
39078;SDS011;24829;49.208;12.080;2024-02-23T14:18:48;2.35;;;0.77;;
39078;SDS011;24829;49.208;12.080;2024-02-23T14:21:14;3.25;;;0.82;;
39078;SDS011;24829;49.208;12.080;2024-02-23T14:23:41;1.38;;;0.50;;
39078;SDS011;24829;49.208;12.080;2024-02-23T14:26:07;3.63;;;1.08;;
39078;SDS011;24829;49.208;12.080;2024-02-23T14:28:33;7.40;;;0.90;;
39078;SDS011;24829;49.208;12.080;2024-02-23T14:30:59;3.15;;;0.70;;
39078;SDS011;24829;49.208;12.080;2024-02-23T14:33:25;2.17;;;0.52;;
39078;SDS011;24829;49.208;12.080;2024-02-23T14:35:50;4.57;;;0.60;;